sensor_id;sensor_type;location;lat;lon;timestamp;pressure;altitude;pressure_sealevel;temperature;humidity
62055;BME280;48653;51.742;-1.256;2023-01-25T00:03:47;103105.12;;;-0.93;46.29
62055;BME280;48653;51.742;-1.256;2023-01-25T00:06:12;103100.90;;;-0.26;46.51
62055;BME280;48653;51.742;-1.256;2023-01-25T00:08:38;103093.83;;;-0.21;46.97
62055;BME280;48653;51.742;-1.256;2023-01-25T00:11:04;103096.66;;;-0.28;47.80
62055;BME280;48653;51.742;-1.256;2023-01-25T00:13:29;103095.27;;;-0.38;48.65
62055;BME280;48653;51.742;-1.256;2023-01-25T00:16:00;103095.68;;;-0.42;48.74
62055;BME280;48653;51.742;-1.256;2023-01-25T00:18:20;103091.69;;;-0.14;48.16
62055;BME280;48653;51.742;-1.256;2023-01-25T00:20:46;103094.26;;;-0.19;48.06
62055;BME280;48653;51.742;-1.256;2023-01-25T00:23:11;103096.38;;;-0.46;49.42
62055;BME280;48653;51.742;-1.256;2023-01-25T00:25:37;103095.24;;;-0.44;49.56
62055;BME280;48653;51.742;-1.256;2023-01-25T00:28:03;103095.22;;;-0.87;50.12
62055;BME280;48653;51.742;-1.256;2023-01-25T00:30:28;103094.68;;;-0.36;49.78
62055;BME280;48653;51.742;-1.256;2023-01-25T00:33:01;103088.47;;;-0.29;50.04
62055;BME280;48653;51.742;-1.256;2023-01-25T00:35:20;103084.43;;;-0.30;49.32
62055;BME280;48653;51.742;-1.256;2023-01-25T00:37:47;103086.54;;;0.12;48.65
62055;BME280;48653;51.742;-1.256;2023-01-25T00:40:11;103084.68;;;-0.27;49.20
62055;BME280;48653;51.742;-1.256;2023-01-25T00:42:36;103087.29;;;-0.18;49.76
62055;BME280;48653;51.742;-1.256;2023-01-25T00:45:01;103090.22;;;0.59;49.07
62055;BME280;48653;51.742;-1.256;2023-01-25T00:47:27;103087.87;;;0.25;48.43
62055;BME280;48653;51.742;-1.256;2023-01-25T00:49:52;103091.57;;;0.41;48.64
62055;BME280;48653;51.742;-1.256;2023-01-25T00:52:18;103092.19;;;0.16;49.04
62055;BME280;48653;51.742;-1.256;2023-01-25T00:54:43;103090.39;;;0.41;48.40
62055;BME280;48653;51.742;-1.256;2023-01-25T00:57:09;103092.37;;;0.35;48.66
62055;BME280;48653;51.742;-1.256;2023-01-25T00:59:34;103091.61;;;0.39;48.90
62055;BME280;48653;51.742;-1.256;2023-01-25T01:02:00;103093.65;;;0.63;48.46
62055;BME280;48653;51.742;-1.256;2023-01-25T01:04:25;103088.16;;;0.69;48.16
62055;BME280;48653;51.742;-1.256;2023-01-25T01:06:51;103086.88;;;0.83;48.52
62055;BME280;48653;51.742;-1.256;2023-01-25T01:09:17;103087.09;;;0.36;48.71
62055;BME280;48653;51.742;-1.256;2023-01-25T01:11:42;103078.85;;;0.59;49.12
62055;BME280;48653;51.742;-1.256;2023-01-25T01:14:07;103075.52;;;0.75;49.11
62055;BME280;48653;51.742;-1.256;2023-01-25T01:16:33;103079.45;;;0.59;49.77
62055;BME280;48653;51.742;-1.256;2023-01-25T01:18:58;103077.05;;;0.74;49.18
62055;BME280;48653;51.742;-1.256;2023-01-25T01:21:23;103077.84;;;0.52;49.89
62055;BME280;48653;51.742;-1.256;2023-01-25T01:23:49;103073.35;;;0.25;50.76
62055;BME280;48653;51.742;-1.256;2023-01-25T01:26:16;103072.95;;;0.55;49.93
62055;BME280;48653;51.742;-1.256;2023-01-25T01:28:41;103072.15;;;0.72;49.89
62055;BME280;48653;51.742;-1.256;2023-01-25T01:31:07;103070.65;;;0.87;49.21
62055;BME280;48653;51.742;-1.256;2023-01-25T01:33:30;103073.19;;;0.51;50.44
62055;BME280;48653;51.742;-1.256;2023-01-25T01:35:56;103068.99;;;0.35;50.12
62055;BME280;48653;51.742;-1.256;2023-01-25T01:38:21;103070.92;;;0.63;50.34
62055;BME280;48653;51.742;-1.256;2023-01-25T01:40:48;103072.19;;;0.60;50.29
62055;BME280;48653;51.742;-1.256;2023-01-25T01:43:17;103069.89;;;0.88;49.85
62055;BME280;48653;51.742;-1.256;2023-01-25T01:45:49;103072.81;;;0.51;51.03
62055;BME280;48653;51.742;-1.256;2023-01-25T01:48:03;103066.14;;;0.74;50.29
62055;BME280;48653;51.742;-1.256;2023-01-25T01:50:29;103065.00;;;0.70;50.59
62055;BME280;48653;51.742;-1.256;2023-01-25T01:52:55;103065.19;;;0.49;50.42
62055;BME280;48653;51.742;-1.256;2023-01-25T01:55:21;103067.38;;;0.90;50.58
62055;BME280;48653;51.742;-1.256;2023-01-25T01:57:49;103072.33;;;0.84;50.75
62055;BME280;48653;51.742;-1.256;2023-01-25T02:00:14;103071.80;;;0.95;50.34
62055;BME280;48653;51.742;-1.256;2023-01-25T02:02:37;103069.27;;;0.84;50.06
62055;BME280;48653;51.742;-1.256;2023-01-25T02:05:07;103072.78;;;1.14;50.03
62055;BME280;48653;51.742;-1.256;2023-01-25T02:07:31;103074.08;;;1.32;49.70
62055;BME280;48653;51.742;-1.256;2023-01-25T02:09:53;103075.19;;;0.87;50.46
62055;BME280;48653;51.742;-1.256;2023-01-25T02:12:20;103076.17;;;0.99;50.17
62055;BME280;48653;51.742;-1.256;2023-01-25T02:14:49;103078.85;;;1.47;49.74
62055;BME280;48653;51.742;-1.256;2023-01-25T02:17:10;103079.32;;;1.39;49.88
62055;BME280;48653;51.742;-1.256;2023-01-25T02:19:41;103075.38;;;1.37;49.49
62055;BME280;48653;51.742;-1.256;2023-01-25T02:22:00;103077.85;;;1.41;49.53
62055;BME280;48653;51.742;-1.256;2023-01-25T02:24:28;103081.99;;;1.25;50.07
62055;BME280;48653;51.742;-1.256;2023-01-25T02:26:50;103080.18;;;1.13;50.47
62055;BME280;48653;51.742;-1.256;2023-01-25T02:29:17;103078.75;;;0.94;51.41
62055;BME280;48653;51.742;-1.256;2023-01-25T02:31:43;103081.88;;;1.39;51.16
62055;BME280;48653;51.742;-1.256;2023-01-25T02:34:07;103083.43;;;1.09;51.08
62055;BME280;48653;51.742;-1.256;2023-01-25T02:36:34;103076.86;;;1.11;51.94
62055;BME280;48653;51.742;-1.256;2023-01-25T02:39:00;103076.50;;;1.04;52.14
62055;BME280;48653;51.742;-1.256;2023-01-25T02:41:29;103067.97;;;0.99;52.02
62055;BME280;48653;51.742;-1.256;2023-01-25T02:43:48;103062.56;;;1.12;52.13
62055;BME280;48653;51.742;-1.256;2023-01-25T02:46:19;103059.03;;;1.28;51.61
62055;BME280;48653;51.742;-1.256;2023-01-25T02:48:39;103054.09;;;1.16;51.52
62055;BME280;48653;51.742;-1.256;2023-01-25T02:51:06;103048.09;;;1.32;51.71
62055;BME280;48653;51.742;-1.256;2023-01-25T02:53:30;103045.94;;;1.43;51.25
62055;BME280;48653;51.742;-1.256;2023-01-25T02:55:55;103044.94;;;0.79;52.23
62055;BME280;48653;51.742;-1.256;2023-01-25T02:58:20;103041.74;;;0.86;52.65
62055;BME280;48653;51.742;-1.256;2023-01-25T03:00:46;103038.87;;;0.62;52.30
62055;BME280;48653;51.742;-1.256;2023-01-25T03:03:12;103041.72;;;0.90;52.97
62055;BME280;48653;51.742;-1.256;2023-01-25T03:05:37;103041.29;;;1.41;51.46
62055;BME280;48653;51.742;-1.256;2023-01-25T03:08:03;103044.65;;;1.31;51.28
62055;BME280;48653;51.742;-1.256;2023-01-25T03:10:28;103040.33;;;1.33;51.00
62055;BME280;48653;51.742;-1.256;2023-01-25T03:12:53;103043.55;;;1.33;50.53
62055;BME280;48653;51.742;-1.256;2023-01-25T03:15:18;103044.39;;;1.55;50.79
62055;BME280;48653;51.742;-1.256;2023-01-25T03:17:43;103042.68;;;1.69;50.58
62055;BME280;48653;51.742;-1.256;2023-01-25T03:20:10;103041.55;;;1.50;50.41
62055;BME280;48653;51.742;-1.256;2023-01-25T03:22:35;103036.35;;;1.60;50.07
62055;BME280;48653;51.742;-1.256;2023-01-25T03:25:00;103037.95;;;1.47;50.68
62055;BME280;48653;51.742;-1.256;2023-01-25T03:27:28;103036.45;;;1.48;50.36
62055;BME280;48653;51.742;-1.256;2023-01-25T03:29:50;103038.14;;;1.54;50.94
62055;BME280;48653;51.742;-1.256;2023-01-25T03:32:16;103037.27;;;0.99;51.22
62055;BME280;48653;51.742;-1.256;2023-01-25T03:34:41;103036.57;;;1.44;51.38
62055;BME280;48653;51.742;-1.256;2023-01-25T03:37:07;103036.22;;;1.04;51.79
62055;BME280;48653;51.742;-1.256;2023-01-25T03:39:32;103035.36;;;1.05;51.77
62055;BME280;48653;51.742;-1.256;2023-01-25T03:41:57;103036.28;;;1.44;51.45
62055;BME280;48653;51.742;-1.256;2023-01-25T03:44:22;103034.80;;;0.87;51.72
62055;BME280;48653;51.742;-1.256;2023-01-25T03:46:48;103036.10;;;1.40;51.29
62055;BME280;48653;51.742;-1.256;2023-01-25T03:49:13;103033.74;;;0.84;52.08
62055;BME280;48653;51.742;-1.256;2023-01-25T03:51:39;103029.79;;;0.96;51.86
62055;BME280;48653;51.742;-1.256;2023-01-25T03:54:05;103029.89;;;0.96;52.41
62055;BME280;48653;51.742;-1.256;2023-01-25T03:56:29;103026.44;;;1.12;51.99
62055;BME280;48653;51.742;-1.256;2023-01-25T03:58:55;103027.44;;;0.85;52.05
62055;BME280;48653;51.742;-1.256;2023-01-25T04:01:20;103029.23;;;1.07;52.04
62055;BME280;48653;51.742;-1.256;2023-01-25T04:03:45;103028.99;;;1.30;51.64
62055;BME280;48653;51.742;-1.256;2023-01-25T04:06:11;103029.16;;;1.09;51.57
62055;BME280;48653;51.742;-1.256;2023-01-25T04:08:36;103033.84;;;0.79;52.37
62055;BME280;48653;51.742;-1.256;2023-01-25T04:11:04;103032.30;;;1.39;51.07
62055;BME280;48653;51.742;-1.256;2023-01-25T04:13:28;103034.85;;;0.73;51.82
62055;BME280;48653;51.742;-1.256;2023-01-25T04:15:53;103033.41;;;1.47;51.34
62055;BME280;48653;51.742;-1.256;2023-01-25T04:18:20;103037.84;;;0.93;51.56
62055;BME280;48653;51.742;-1.256;2023-01-25T04:20:44;103040.48;;;1.15;51.24
62055;BME280;48653;51.742;-1.256;2023-01-25T04:23:10;103039.70;;;1.07;51.74
62055;BME280;48653;51.742;-1.256;2023-01-25T04:25:36;103040.32;;;0.92;51.74
62055;BME280;48653;51.742;-1.256;2023-01-25T04:28:01;103042.62;;;0.97;51.75
62055;BME280;48653;51.742;-1.256;2023-01-25T04:30:26;103044.53;;;0.99;51.78
62055;BME280;48653;51.742;-1.256;2023-01-25T04:32:52;103040.60;;;1.05;51.57
62055;BME280;48653;51.742;-1.256;2023-01-25T04:35:18;103040.89;;;1.09;50.93
62055;BME280;48653;51.742;-1.256;2023-01-25T04:37:43;103040.31;;;0.91;51.39
62055;BME280;48653;51.742;-1.256;2023-01-25T04:40:09;103037.50;;;1.35;51.07
62055;BME280;48653;51.742;-1.256;2023-01-25T04:42:33;103037.10;;;1.60;50.61
62055;BME280;48653;51.742;-1.256;2023-01-25T04:44:58;103036.12;;;1.40;50.62
62055;BME280;48653;51.742;-1.256;2023-01-25T04:47:24;103037.27;;;0.76;51.72
62055;BME280;48653;51.742;-1.256;2023-01-25T04:49:50;103030.84;;;0.96;51.51
62055;BME280;48653;51.742;-1.256;2023-01-25T04:52:15;103033.11;;;1.14;51.10
62055;BME280;48653;51.742;-1.256;2023-01-25T04:54:41;103029.91;;;1.13;51.12
62055;BME280;48653;51.742;-1.256;2023-01-25T04:57:06;103030.65;;;1.12;51.17
62055;BME280;48653;51.742;-1.256;2023-01-25T04:59:32;103035.14;;;0.69;51.82
62055;BME280;48653;51.742;-1.256;2023-01-25T05:01:57;103026.56;;;1.20;51.76
62055;BME280;48653;51.742;-1.256;2023-01-25T05:04:22;103026.53;;;1.03;51.53
62055;BME280;48653;51.742;-1.256;2023-01-25T05:06:48;103025.74;;;0.87;51.88
62055;BME280;48653;51.742;-1.256;2023-01-25T05:09:13;103025.41;;;0.91;51.91
62055;BME280;48653;51.742;-1.256;2023-01-25T05:11:39;103027.75;;;1.41;50.73
62055;BME280;48653;51.742;-1.256;2023-01-25T05:14:04;103025.77;;;1.62;51.02
62055;BME280;48653;51.742;-1.256;2023-01-25T05:16:30;103021.14;;;1.32;51.18
62055;BME280;48653;51.742;-1.256;2023-01-25T05:18:55;103015.57;;;1.49;51.29
62055;BME280;48653;51.742;-1.256;2023-01-25T05:21:21;103006.00;;;1.33;51.21
62055;BME280;48653;51.742;-1.256;2023-01-25T05:23:47;102998.82;;;1.41;51.45
62055;BME280;48653;51.742;-1.256;2023-01-25T05:26:12;102998.61;;;1.20;51.91
62055;BME280;48653;51.742;-1.256;2023-01-25T05:28:37;103001.31;;;0.63;52.25
62055;BME280;48653;51.742;-1.256;2023-01-25T05:31:03;102997.73;;;1.19;51.62
62055;BME280;48653;51.742;-1.256;2023-01-25T05:33:28;102993.82;;;1.34;51.23
62055;BME280;48653;51.742;-1.256;2023-01-25T05:35:54;102988.66;;;1.33;51.53
62055;BME280;48653;51.742;-1.256;2023-01-25T05:38:19;102982.56;;;1.52;51.48
62055;BME280;48653;51.742;-1.256;2023-01-25T05:40:45;102976.80;;;1.56;51.02
62055;BME280;48653;51.742;-1.256;2023-01-25T05:43:10;102975.05;;;1.36;50.95
62055;BME280;48653;51.742;-1.256;2023-01-25T05:45:35;102971.52;;;1.04;51.51
62055;BME280;48653;51.742;-1.256;2023-01-25T05:48:00;102973.36;;;1.50;51.34
62055;BME280;48653;51.742;-1.256;2023-01-25T05:50:26;102963.37;;;0.92;51.82
62055;BME280;48653;51.742;-1.256;2023-01-25T05:52:51;102958.20;;;0.88;52.92
62055;BME280;48653;51.742;-1.256;2023-01-25T05:55:17;102952.56;;;1.03;51.95
62055;BME280;48653;51.742;-1.256;2023-01-25T05:57:42;102954.89;;;0.69;53.54
62055;BME280;48653;51.742;-1.256;2023-01-25T06:00:10;102958.91;;;0.36;54.13
62055;BME280;48653;51.742;-1.256;2023-01-25T06:02:33;102958.22;;;0.34;54.29
62055;BME280;48653;51.742;-1.256;2023-01-25T06:04:59;102950.16;;;0.82;53.26
62055;BME280;48653;51.742;-1.256;2023-01-25T06:07:24;102945.77;;;1.01;53.05
62055;BME280;48653;51.742;-1.256;2023-01-25T06:09:50;102940.95;;;1.10;52.62
62055;BME280;48653;51.742;-1.256;2023-01-25T06:12:14;102942.31;;;0.86;53.18
62055;BME280;48653;51.742;-1.256;2023-01-25T06:14:40;102941.56;;;1.29;52.09
62055;BME280;48653;51.742;-1.256;2023-01-25T06:17:06;102939.42;;;0.58;53.16
62055;BME280;48653;51.742;-1.256;2023-01-25T06:19:31;102938.04;;;0.89;52.52
62055;BME280;48653;51.742;-1.256;2023-01-25T06:21:57;102938.97;;;0.99;52.72
62055;BME280;48653;51.742;-1.256;2023-01-25T06:24:22;102942.28;;;0.92;52.48
62055;BME280;48653;51.742;-1.256;2023-01-25T06:26:47;102940.74;;;1.31;52.22
62055;BME280;48653;51.742;-1.256;2023-01-25T06:29:13;102936.44;;;0.81;52.76
62055;BME280;48653;51.742;-1.256;2023-01-25T06:31:38;102932.18;;;0.78;52.84
62055;BME280;48653;51.742;-1.256;2023-01-25T06:34:04;102928.90;;;1.16;52.68
62055;BME280;48653;51.742;-1.256;2023-01-25T06:36:29;102930.35;;;1.01;52.32
62055;BME280;48653;51.742;-1.256;2023-01-25T06:38:54;102927.74;;;0.86;53.15
62055;BME280;48653;51.742;-1.256;2023-01-25T06:41:20;102934.89;;;1.13;52.02
62055;BME280;48653;51.742;-1.256;2023-01-25T06:43:45;102932.62;;;0.91;53.13
62055;BME280;48653;51.742;-1.256;2023-01-25T06:46:10;102926.92;;;1.12;52.72
62055;BME280;48653;51.742;-1.256;2023-01-25T06:48:36;102923.94;;;1.30;52.19
62055;BME280;48653;51.742;-1.256;2023-01-25T06:51:03;102914.28;;;1.01;52.28
62055;BME280;48653;51.742;-1.256;2023-01-25T06:53:28;102921.08;;;1.34;51.73
62055;BME280;48653;51.742;-1.256;2023-01-25T06:55:57;102921.88;;;0.83;52.92
62055;BME280;48653;51.742;-1.256;2023-01-25T06:58:17;102923.93;;;0.90;52.74
62055;BME280;48653;51.742;-1.256;2023-01-25T07:00:42;102920.30;;;0.93;52.56
62055;BME280;48653;51.742;-1.256;2023-01-25T07:03:08;102916.39;;;1.37;51.57
62055;BME280;48653;51.742;-1.256;2023-01-25T07:05:33;102915.44;;;1.34;51.78
62055;BME280;48653;51.742;-1.256;2023-01-25T07:07:59;102915.56;;;1.10;52.38
62055;BME280;48653;51.742;-1.256;2023-01-25T07:10:25;102913.01;;;0.97;52.52
62055;BME280;48653;51.742;-1.256;2023-01-25T07:12:50;102910.55;;;1.04;52.59
62055;BME280;48653;51.742;-1.256;2023-01-25T07:15:16;102911.21;;;1.12;52.43
62055;BME280;48653;51.742;-1.256;2023-01-25T07:17:41;102907.87;;;0.89;52.88
62055;BME280;48653;51.742;-1.256;2023-01-25T07:20:07;102902.78;;;1.33;52.07
62055;BME280;48653;51.742;-1.256;2023-01-25T07:22:33;102900.40;;;1.27;52.18
62055;BME280;48653;51.742;-1.256;2023-01-25T07:24:57;102895.74;;;1.37;51.92
62055;BME280;48653;51.742;-1.256;2023-01-25T07:27:23;102898.59;;;1.53;51.70
62055;BME280;48653;51.742;-1.256;2023-01-25T07:29:48;102895.25;;;1.04;52.16
62055;BME280;48653;51.742;-1.256;2023-01-25T07:32:14;102900.26;;;1.50;52.13
62055;BME280;48653;51.742;-1.256;2023-01-25T07:34:40;102902.07;;;1.54;51.89
62055;BME280;48653;51.742;-1.256;2023-01-25T07:37:05;102902.26;;;1.70;51.72
62055;BME280;48653;51.742;-1.256;2023-01-25T07:39:30;102902.85;;;1.39;51.87
62055;BME280;48653;51.742;-1.256;2023-01-25T07:41:56;102897.36;;;1.72;51.23
62055;BME280;48653;51.742;-1.256;2023-01-25T07:44:22;102897.77;;;1.90;50.93
62055;BME280;48653;51.742;-1.256;2023-01-25T07:46:48;102895.21;;;1.77;50.70
62055;BME280;48653;51.742;-1.256;2023-01-25T07:49:13;102897.75;;;1.55;51.09
62055;BME280;48653;51.742;-1.256;2023-01-25T07:51:39;102897.65;;;2.04;50.59
62055;BME280;48653;51.742;-1.256;2023-01-25T07:54:04;102900.10;;;1.85;51.30
62055;BME280;48653;51.742;-1.256;2023-01-25T07:56:31;102902.21;;;1.71;51.42
62055;BME280;48653;51.742;-1.256;2023-01-25T07:58:56;102901.85;;;1.48;51.81
62055;BME280;48653;51.742;-1.256;2023-01-25T08:01:22;102897.69;;;2.05;50.92
62055;BME280;48653;51.742;-1.256;2023-01-25T08:03:47;102898.28;;;1.95;51.37
62055;BME280;48653;51.742;-1.256;2023-01-25T08:06:11;102895.15;;;1.59;51.90
62055;BME280;48653;51.742;-1.256;2023-01-25T08:08:39;102893.42;;;1.61;52.17
62055;BME280;48653;51.742;-1.256;2023-01-25T08:11:07;102893.66;;;1.45;52.57
62055;BME280;48653;51.742;-1.256;2023-01-25T08:13:28;102885.15;;;1.17;53.39
62055;BME280;48653;51.742;-1.256;2023-01-25T08:15:55;102879.32;;;1.70;52.93
62055;BME280;48653;51.742;-1.256;2023-01-25T08:18:19;102874.22;;;0.74;55.27
62055;BME280;48653;51.742;-1.256;2023-01-25T08:20:45;102870.61;;;0.97;54.03
62055;BME280;48653;51.742;-1.256;2023-01-25T08:23:10;102870.49;;;1.74;52.58
62055;BME280;48653;51.742;-1.256;2023-01-25T08:25:36;102866.20;;;2.00;51.84
62055;BME280;48653;51.742;-1.256;2023-01-25T08:28:01;102865.89;;;1.86;51.96
62055;BME280;48653;51.742;-1.256;2023-01-25T08:30:27;102861.91;;;1.63;52.48
62055;BME280;48653;51.742;-1.256;2023-01-25T08:32:52;102864.38;;;2.02;51.62
62055;BME280;48653;51.742;-1.256;2023-01-25T08:35:18;102860.66;;;2.11;51.32
62055;BME280;48653;51.742;-1.256;2023-01-25T08:37:43;102858.99;;;1.90;51.14
62055;BME280;48653;51.742;-1.256;2023-01-25T08:40:10;102850.44;;;1.79;51.53
62055;BME280;48653;51.742;-1.256;2023-01-25T08:42:34;102849.61;;;1.56;52.56
62055;BME280;48653;51.742;-1.256;2023-01-25T08:45:00;102847.90;;;0.93;54.93
62055;BME280;48653;51.742;-1.256;2023-01-25T08:47:25;102839.20;;;0.76;55.88
62055;BME280;48653;51.742;-1.256;2023-01-25T08:49:51;102837.81;;;1.31;54.67
62055;BME280;48653;51.742;-1.256;2023-01-25T08:52:17;102833.09;;;1.15;55.67
62055;BME280;48653;51.742;-1.256;2023-01-25T08:54:42;102828.36;;;0.73;57.01
62055;BME280;48653;51.742;-1.256;2023-01-25T08:57:08;102824.63;;;1.85;53.81
62055;BME280;48653;51.742;-1.256;2023-01-25T08:59:33;102825.95;;;1.57;54.32
62055;BME280;48653;51.742;-1.256;2023-01-25T09:01:59;102818.29;;;1.98;53.79
62055;BME280;48653;51.742;-1.256;2023-01-25T09:04:24;102816.95;;;2.48;52.79
62055;BME280;48653;51.742;-1.256;2023-01-25T09:06:50;102819.34;;;2.00;53.94
62055;BME280;48653;51.742;-1.256;2023-01-25T09:09:15;102809.86;;;1.83;54.50
62055;BME280;48653;51.742;-1.256;2023-01-25T09:11:41;102800.38;;;2.40;53.29
62055;BME280;48653;51.742;-1.256;2023-01-25T09:14:07;102796.28;;;2.14;53.23
62055;BME280;48653;51.742;-1.256;2023-01-25T09:16:33;102797.26;;;1.67;55.41
62055;BME280;48653;51.742;-1.256;2023-01-25T09:21:23;102788.29;;;1.19;55.44
62055;BME280;48653;51.742;-1.256;2023-01-25T09:23:50;102785.00;;;2.02;53.10
62055;BME280;48653;51.742;-1.256;2023-01-25T09:26:14;102776.78;;;2.27;53.09
62055;BME280;48653;51.742;-1.256;2023-01-25T09:28:40;102773.98;;;2.06;53.57
62055;BME280;48653;51.742;-1.256;2023-01-25T09:31:05;102764.83;;;2.33;53.13
62055;BME280;48653;51.742;-1.256;2023-01-25T09:33:32;102760.35;;;1.85;53.61
62055;BME280;48653;51.742;-1.256;2023-01-25T09:35:56;102758.56;;;2.76;52.36
62055;BME280;48653;51.742;-1.256;2023-01-25T09:38:22;102748.73;;;2.44;53.76
62055;BME280;48653;51.742;-1.256;2023-01-25T09:40:57;102747.56;;;2.29;54.63
62055;BME280;48653;51.742;-1.256;2023-01-25T09:43:18;102747.14;;;1.77;55.82
62055;BME280;48653;51.742;-1.256;2023-01-25T09:45:38;102737.41;;;2.03;54.85
62055;BME280;48653;51.742;-1.256;2023-01-25T09:48:11;102735.50;;;1.79;55.34
62055;BME280;48653;51.742;-1.256;2023-01-25T09:50:33;102731.56;;;2.52;54.31
62055;BME280;48653;51.742;-1.256;2023-01-25T09:53:13;102723.27;;;2.46;54.93
62055;BME280;48653;51.742;-1.256;2023-01-25T09:55:23;102720.08;;;2.38;54.17
62055;BME280;48653;51.742;-1.256;2023-01-25T09:57:46;102715.04;;;1.99;55.64
62055;BME280;48653;51.742;-1.256;2023-01-25T10:00:15;102709.45;;;3.07;53.61
62055;BME280;48653;51.742;-1.256;2023-01-25T10:02:43;102708.69;;;2.42;54.14
62055;BME280;48653;51.742;-1.256;2023-01-25T10:05:06;102708.33;;;2.15;54.91
62055;BME280;48653;51.742;-1.256;2023-01-25T10:07:37;102708.99;;;2.02;55.47
62055;BME280;48653;51.742;-1.256;2023-01-25T10:10:02;102704.11;;;2.70;54.32
62055;BME280;48653;51.742;-1.256;2023-01-25T10:12:20;102702.66;;;2.72;54.37
62055;BME280;48653;51.742;-1.256;2023-01-25T10:14:44;102692.72;;;2.74;54.29
62055;BME280;48653;51.742;-1.256;2023-01-25T10:17:14;102686.65;;;3.35;52.95
62055;BME280;48653;51.742;-1.256;2023-01-25T10:19:46;102676.60;;;3.14;53.29
62055;BME280;48653;51.742;-1.256;2023-01-25T10:22:07;102677.98;;;2.75;53.66
62055;BME280;48653;51.742;-1.256;2023-01-25T10:24:37;102672.19;;;3.15;53.34
62055;BME280;48653;51.742;-1.256;2023-01-25T10:26:55;102673.92;;;3.84;52.40
62055;BME280;48653;51.742;-1.256;2023-01-25T10:29:18;102681.41;;;3.67;52.36
62055;BME280;48653;51.742;-1.256;2023-01-25T10:31:45;102680.40;;;3.66;52.18
62055;BME280;48653;51.742;-1.256;2023-01-25T10:34:15;102676.54;;;3.50;52.26
62055;BME280;48653;51.742;-1.256;2023-01-25T10:36:33;102667.52;;;3.80;51.66
62055;BME280;48653;51.742;-1.256;2023-01-25T10:38:58;102669.25;;;3.76;51.60
62055;BME280;48653;51.742;-1.256;2023-01-25T10:41:26;102670.28;;;3.85;52.04
62055;BME280;48653;51.742;-1.256;2023-01-25T10:43:49;102671.27;;;3.14;54.43
62055;BME280;48653;51.742;-1.256;2023-01-25T10:46:18;102675.95;;;3.40;53.49
62055;BME280;48653;51.742;-1.256;2023-01-25T10:48:39;102668.41;;;3.85;53.16
62055;BME280;48653;51.742;-1.256;2023-01-25T10:51:04;102659.12;;;4.06;52.47
62055;BME280;48653;51.742;-1.256;2023-01-25T10:53:32;102648.57;;;3.93;52.25
62055;BME280;48653;51.742;-1.256;2023-01-25T10:56:00;102636.47;;;3.91;53.02
62055;BME280;48653;51.742;-1.256;2023-01-25T10:58:33;102624.54;;;3.94;52.84
62055;BME280;48653;51.742;-1.256;2023-01-25T11:00:51;102612.24;;;3.87;53.61
62055;BME280;48653;51.742;-1.256;2023-01-25T11:03:20;102604.74;;;3.24;54.29
62055;BME280;48653;51.742;-1.256;2023-01-25T11:05:39;102598.40;;;3.20;54.49
62055;BME280;48653;51.742;-1.256;2023-01-25T11:08:19;102594.45;;;3.68;54.36
62055;BME280;48653;51.742;-1.256;2023-01-25T11:10:31;102595.45;;;3.72;54.51
62055;BME280;48653;51.742;-1.256;2023-01-25T11:15:24;102596.63;;;3.75;53.40
62055;BME280;48653;51.742;-1.256;2023-01-25T11:17:44;102601.81;;;3.88;54.27
62055;BME280;48653;51.742;-1.256;2023-01-25T11:20:16;102605.68;;;3.91;53.92
62055;BME280;48653;51.742;-1.256;2023-01-25T11:22:35;102597.24;;;3.51;55.07
62055;BME280;48653;51.742;-1.256;2023-01-25T11:27:26;102583.60;;;3.54;54.36
62055;BME280;48653;51.742;-1.256;2023-01-25T11:32:18;102566.54;;;3.20;55.44
62055;BME280;48653;51.742;-1.256;2023-01-25T11:34:42;102553.60;;;3.33;55.13
62055;BME280;48653;51.742;-1.256;2023-01-25T11:37:20;102549.53;;;4.22;54.02
62055;BME280;48653;51.742;-1.256;2023-01-25T11:39:41;102558.08;;;4.12;54.17
62055;BME280;48653;51.742;-1.256;2023-01-25T11:42:05;102561.99;;;4.35;53.88
62055;BME280;48653;51.742;-1.256;2023-01-25T11:44:36;102570.14;;;4.48;53.40
62055;BME280;48653;51.742;-1.256;2023-01-25T11:46:56;102586.68;;;3.58;54.83
62055;BME280;48653;51.742;-1.256;2023-01-25T11:49:24;102581.41;;;3.95;55.39
62055;BME280;48653;51.742;-1.256;2023-01-25T11:51:49;102587.78;;;4.26;54.81
62055;BME280;48653;51.742;-1.256;2023-01-25T11:54:27;102592.79;;;2.97;57.39
62055;BME280;48653;51.742;-1.256;2023-01-25T11:56:44;102593.98;;;3.26;57.05
62055;BME280;48653;51.742;-1.256;2023-01-25T11:59:10;102590.42;;;3.16;57.38
62055;BME280;48653;51.742;-1.256;2023-01-25T12:01:30;102588.43;;;4.59;54.21
62055;BME280;48653;51.742;-1.256;2023-01-25T12:04:02;102588.36;;;4.19;54.80
62055;BME280;48653;51.742;-1.256;2023-01-25T12:06:18;102597.91;;;4.25;54.65
62055;BME280;48653;51.742;-1.256;2023-01-25T12:08:50;102603.64;;;4.04;55.30
62055;BME280;48653;51.742;-1.256;2023-01-25T12:11:08;102593.40;;;3.55;56.31
62055;BME280;48653;51.742;-1.256;2023-01-25T12:13:34;102587.38;;;3.91;55.90
62055;BME280;48653;51.742;-1.256;2023-01-25T12:16:12;102580.13;;;4.96;54.25
62055;BME280;48653;51.742;-1.256;2023-01-25T12:18:40;102587.00;;;4.55;55.33
62055;BME280;48653;51.742;-1.256;2023-01-25T12:21:02;102588.65;;;4.96;54.55
62055;BME280;48653;51.742;-1.256;2023-01-25T12:23:21;102578.10;;;5.02;54.37
62055;BME280;48653;51.742;-1.256;2023-01-25T12:25:45;102568.16;;;4.82;54.20
62055;BME280;48653;51.742;-1.256;2023-01-25T12:28:10;102563.58;;;4.22;55.96
62055;BME280;48653;51.742;-1.256;2023-01-25T12:30:37;102566.39;;;3.69;57.43
62055;BME280;48653;51.742;-1.256;2023-01-25T12:32:57;102564.47;;;4.11;56.74
62055;BME280;48653;51.742;-1.256;2023-01-25T12:35:26;102559.32;;;4.77;55.82
62055;BME280;48653;51.742;-1.256;2023-01-25T12:37:45;102546.90;;;4.65;56.48
62055;BME280;48653;51.742;-1.256;2023-01-25T12:40:13;102539.93;;;5.27;54.34
62055;BME280;48653;51.742;-1.256;2023-01-25T12:42:39;102547.76;;;5.69;53.68
62055;BME280;48653;51.742;-1.256;2023-01-25T12:45:05;102547.87;;;5.64;53.26
62055;BME280;48653;51.742;-1.256;2023-01-25T12:47:30;102545.27;;;5.83;52.79
62055;BME280;48653;51.742;-1.256;2023-01-25T12:49:54;102537.02;;;5.86;52.60
62055;BME280;48653;51.742;-1.256;2023-01-25T12:52:22;102539.11;;;5.59;53.04